sensor_id;sensor_type;location;lat;lon;timestamp;pressure;altitude;pressure_sealevel;temperature;humidity
74079;BME280;62437;51.544;-3.276;2023-02-01T00:00:47;102022.98;;;1.83;71.91
74079;BME280;62437;51.544;-3.276;2023-02-01T00:03:13;102032.16;;;1.26;74.18
74079;BME280;62437;51.544;-3.276;2023-02-01T00:05:40;102036.41;;;0.70;75.23
74079;BME280;62437;51.544;-3.276;2023-02-01T00:08:05;102045.51;;;0.86;75.40
74079;BME280;62437;51.544;-3.276;2023-02-01T00:10:30;102053.46;;;1.11;74.37
74079;BME280;62437;51.544;-3.276;2023-02-01T00:12:56;102048.79;;;0.23;78.14
74079;BME280;62437;51.544;-3.276;2023-02-01T00:15:22;102033.61;;;0.97;75.59
74079;BME280;62437;51.544;-3.276;2023-02-01T00:17:53;102030.01;;;0.93;74.75
74079;BME280;62437;51.544;-3.276;2023-02-01T00:20:13;102031.95;;;0.67;75.95
74079;BME280;62437;51.544;-3.276;2023-02-01T00:22:39;102037.71;;;0.67;74.84
74079;BME280;62437;51.544;-3.276;2023-02-01T00:25:06;102041.45;;;0.88;74.99
74079;BME280;62437;51.544;-3.276;2023-02-01T00:27:31;102043.36;;;0.36;75.21
74079;BME280;62437;51.544;-3.276;2023-02-01T00:29:58;102041.33;;;0.68;75.57
74079;BME280;62437;51.544;-3.276;2023-02-01T00:32:23;102037.69;;;0.78;75.23
74079;BME280;62437;51.544;-3.276;2023-02-01T00:34:48;102038.04;;;1.00;75.02
74079;BME280;62437;51.544;-3.276;2023-02-01T00:37:14;102044.92;;;1.18;73.03
74079;BME280;62437;51.544;-3.276;2023-02-01T00:39:39;102042.26;;;1.53;71.99
74079;BME280;62437;51.544;-3.276;2023-02-01T00:42:06;102036.78;;;1.24;72.21
74079;BME280;62437;51.544;-3.276;2023-02-01T00:44:31;102037.25;;;1.07;73.99
74079;BME280;62437;51.544;-3.276;2023-02-01T00:46:57;102032.09;;;1.69;69.25
74079;BME280;62437;51.544;-3.276;2023-02-01T00:49:23;102033.52;;;0.46;75.41
74079;BME280;62437;51.544;-3.276;2023-02-01T00:51:48;102029.89;;;0.95;72.20
74079;BME280;62437;51.544;-3.276;2023-02-01T00:54:14;102019.35;;;1.84;69.59
74079;BME280;62437;51.544;-3.276;2023-02-01T00:56:40;102026.40;;;1.37;70.80
74079;BME280;62437;51.544;-3.276;2023-02-01T00:59:06;102019.17;;;1.76;69.60
74079;BME280;62437;51.544;-3.276;2023-02-01T01:01:31;102021.24;;;1.58;69.99
74079;BME280;62437;51.544;-3.276;2023-02-01T01:03:59;102021.99;;;1.75;70.40
74079;BME280;62437;51.544;-3.276;2023-02-01T01:06:25;102018.40;;;1.37;69.82
74079;BME280;62437;51.544;-3.276;2023-02-01T01:08:51;102028.40;;;1.26;70.85
74079;BME280;62437;51.544;-3.276;2023-02-01T01:11:17;102022.25;;;1.39;71.67
74079;BME280;62437;51.544;-3.276;2023-02-01T01:13:41;102026.19;;;0.05;75.47
74079;BME280;62437;51.544;-3.276;2023-02-01T01:16:09;102026.68;;;0.96;73.75
74079;BME280;62437;51.544;-3.276;2023-02-01T01:18:33;102021.51;;;1.18;74.39
74079;BME280;62437;51.544;-3.276;2023-02-01T01:20:58;102023.77;;;1.50;70.91
74079;BME280;62437;51.544;-3.276;2023-02-01T01:23:24;102031.55;;;0.87;73.02
74079;BME280;62437;51.544;-3.276;2023-02-01T01:25:49;102029.74;;;1.21;70.49
74079;BME280;62437;51.544;-3.276;2023-02-01T01:28:15;102027.02;;;0.80;73.11
74079;BME280;62437;51.544;-3.276;2023-02-01T01:30:41;102025.77;;;0.51;74.74
74079;BME280;62437;51.544;-3.276;2023-02-01T01:33:07;102029.58;;;0.78;73.09
74079;BME280;62437;51.544;-3.276;2023-02-01T01:35:33;102032.40;;;0.56;76.19
74079;BME280;62437;51.544;-3.276;2023-02-01T01:37:59;102032.13;;;1.21;71.12
74079;BME280;62437;51.544;-3.276;2023-02-01T01:40:26;102040.20;;;1.20;70.84
74079;BME280;62437;51.544;-3.276;2023-02-01T01:42:50;102039.33;;;1.54;70.00
74079;BME280;62437;51.544;-3.276;2023-02-01T01:45:24;102039.83;;;1.46;69.53
74079;BME280;62437;51.544;-3.276;2023-02-01T01:47:46;102040.30;;;0.67;74.66
74079;BME280;62437;51.544;-3.276;2023-02-01T01:50:12;102040.61;;;-0.01;77.49
74079;BME280;62437;51.544;-3.276;2023-02-01T01:52:33;102036.85;;;0.84;73.34
74079;BME280;62437;51.544;-3.276;2023-02-01T01:54:59;102033.28;;;0.65;74.63
74079;BME280;62437;51.544;-3.276;2023-02-01T01:57:29;102037.51;;;0.56;75.25
74079;BME280;62437;51.544;-3.276;2023-02-01T01:59:56;102033.86;;;0.71;74.27
74079;BME280;62437;51.544;-3.276;2023-02-01T02:02:16;102043.85;;;0.18;75.80
74079;BME280;62437;51.544;-3.276;2023-02-01T02:04:42;102041.76;;;0.32;75.17
74079;BME280;62437;51.544;-3.276;2023-02-01T02:07:10;102040.96;;;0.30;76.68
74079;BME280;62437;51.544;-3.276;2023-02-01T02:09:34;102044.20;;;0.31;75.40
74079;BME280;62437;51.544;-3.276;2023-02-01T02:11:59;102046.11;;;-0.01;77.50
74079;BME280;62437;51.544;-3.276;2023-02-01T02:14:26;102050.44;;;0.36;77.01
74079;BME280;62437;51.544;-3.276;2023-02-01T02:17:01;102051.01;;;0.17;78.24
74079;BME280;62437;51.544;-3.276;2023-02-01T02:21:53;102035.89;;;0.62;75.28
74079;BME280;62437;51.544;-3.276;2023-02-01T02:31:40;102047.94;;;0.48;76.63
74079;BME280;62437;51.544;-3.276;2023-02-01T02:33:59;102051.13;;;0.34;78.01
74079;BME280;62437;51.544;-3.276;2023-02-01T02:36:24;102051.70;;;0.48;75.96
74079;BME280;62437;51.544;-3.276;2023-02-01T02:38:49;102051.13;;;1.00;74.98
74079;BME280;62437;51.544;-3.276;2023-02-01T02:41:15;102044.73;;;1.22;73.90
74079;BME280;62437;51.544;-3.276;2023-02-01T02:43:42;102050.15;;;0.70;78.23
74079;BME280;62437;51.544;-3.276;2023-02-01T02:46:05;102043.68;;;1.06;75.02
74079;BME280;62437;51.544;-3.276;2023-02-01T02:48:30;102036.97;;;1.05;74.97
74079;BME280;62437;51.544;-3.276;2023-02-01T02:50:58;102033.70;;;1.50;75.37
74079;BME280;62437;51.544;-3.276;2023-02-01T02:53:19;102036.27;;;0.82;76.71
74079;BME280;62437;51.544;-3.276;2023-02-01T02:55:43;102037.78;;;0.69;77.66
74079;BME280;62437;51.544;-3.276;2023-02-01T02:58:10;102039.72;;;1.39;75.29
74079;BME280;62437;51.544;-3.276;2023-02-01T03:00:35;102045.03;;;1.42;75.63
74079;BME280;62437;51.544;-3.276;2023-02-01T03:03:01;102034.76;;;1.62;73.62
74079;BME280;62437;51.544;-3.276;2023-02-01T03:05:32;102035.76;;;1.53;74.75
74079;BME280;62437;51.544;-3.276;2023-02-01T03:08:04;102039.84;;;1.39;75.04
74079;BME280;62437;51.544;-3.276;2023-02-01T03:10:24;102041.15;;;0.48;78.36
74079;BME280;62437;51.544;-3.276;2023-02-01T03:12:44;102045.97;;;1.04;78.35
74079;BME280;62437;51.544;-3.276;2023-02-01T03:15:11;102040.44;;;0.99;77.46
74079;BME280;62437;51.544;-3.276;2023-02-01T03:17:40;102043.68;;;1.36;77.52
74079;BME280;62437;51.544;-3.276;2023-02-01T03:20:02;102040.54;;;0.62;79.43
74079;BME280;62437;51.544;-3.276;2023-02-01T03:22:28;102041.22;;;1.09;78.73
74079;BME280;62437;51.544;-3.276;2023-02-01T03:24:55;102036.74;;;1.31;75.69
74079;BME280;62437;51.544;-3.276;2023-02-01T03:27:22;102033.67;;;1.33;76.93
74079;BME280;62437;51.544;-3.276;2023-02-01T03:29:47;102033.26;;;1.61;76.41
74079;BME280;62437;51.544;-3.276;2023-02-01T03:32:10;102034.61;;;1.31;76.76
74079;BME280;62437;51.544;-3.276;2023-02-01T03:34:36;102029.27;;;2.03;75.57
74079;BME280;62437;51.544;-3.276;2023-02-01T03:37:03;102040.84;;;1.84;76.09
74079;BME280;62437;51.544;-3.276;2023-02-01T03:39:31;102035.26;;;1.00;77.40
74079;BME280;62437;51.544;-3.276;2023-02-01T03:41:58;102029.21;;;1.68;76.58
74079;BME280;62437;51.544;-3.276;2023-02-01T03:44:23;102023.57;;;1.81;75.33
74079;BME280;62437;51.544;-3.276;2023-02-01T03:46:48;102027.53;;;1.40;76.80
74079;BME280;62437;51.544;-3.276;2023-02-01T03:49:13;102022.72;;;1.77;76.69
74079;BME280;62437;51.544;-3.276;2023-02-01T03:51:37;102018.28;;;1.16;78.28
74079;BME280;62437;51.544;-3.276;2023-02-01T03:54:03;102023.99;;;1.39;78.26
74079;BME280;62437;51.544;-3.276;2023-02-01T03:56:27;102016.75;;;1.30;77.46
74079;BME280;62437;51.544;-3.276;2023-02-01T03:58:54;102015.72;;;1.30;77.10
74079;BME280;62437;51.544;-3.276;2023-02-01T04:01:19;102020.70;;;1.56;77.96
74079;BME280;62437;51.544;-3.276;2023-02-01T04:03:44;102024.09;;;1.39;78.23
74079;BME280;62437;51.544;-3.276;2023-02-01T04:06:10;102023.40;;;1.39;78.87
74079;BME280;62437;51.544;-3.276;2023-02-01T04:08:36;102020.62;;;1.37;78.06
74079;BME280;62437;51.544;-3.276;2023-02-01T04:11:02;102018.83;;;1.33;77.65
74079;BME280;62437;51.544;-3.276;2023-02-01T04:13:27;102017.72;;;1.66;77.45
74079;BME280;62437;51.544;-3.276;2023-02-01T04:15:53;102013.04;;;1.14;78.11
74079;BME280;62437;51.544;-3.276;2023-02-01T04:18:19;102009.90;;;1.54;78.39
74079;BME280;62437;51.544;-3.276;2023-02-01T04:20:45;102004.13;;;1.31;77.37
74079;BME280;62437;51.544;-3.276;2023-02-01T04:23:11;102005.49;;;1.89;75.61
74079;BME280;62437;51.544;-3.276;2023-02-01T04:25:36;102008.26;;;1.84;75.84
74079;BME280;62437;51.544;-3.276;2023-02-01T04:28:02;101995.11;;;1.92;77.07
74079;BME280;62437;51.544;-3.276;2023-02-01T04:30:30;101996.74;;;1.05;79.19
74079;BME280;62437;51.544;-3.276;2023-02-01T04:32:54;101995.17;;;1.95;76.90
74079;BME280;62437;51.544;-3.276;2023-02-01T04:35:21;102000.62;;;1.40;77.43
74079;BME280;62437;51.544;-3.276;2023-02-01T04:37:45;102003.84;;;1.80;76.35
74079;BME280;62437;51.544;-3.276;2023-02-01T04:40:12;102013.75;;;1.64;76.40
74079;BME280;62437;51.544;-3.276;2023-02-01T04:42:37;102010.59;;;1.79;76.55
74079;BME280;62437;51.544;-3.276;2023-02-01T04:45:03;102017.12;;;1.59;77.00
74079;BME280;62437;51.544;-3.276;2023-02-01T04:47:28;102022.54;;;1.39;77.98
74079;BME280;62437;51.544;-3.276;2023-02-01T04:49:54;102029.56;;;1.52;76.59
74079;BME280;62437;51.544;-3.276;2023-02-01T04:52:20;102028.16;;;1.36;76.89
74079;BME280;62437;51.544;-3.276;2023-02-01T04:54:45;102034.54;;;0.76;79.06
74079;BME280;62437;51.544;-3.276;2023-02-01T04:57:11;102035.04;;;0.99;77.85
74079;BME280;62437;51.544;-3.276;2023-02-01T04:59:38;102035.42;;;1.08;76.18
74079;BME280;62437;51.544;-3.276;2023-02-01T05:02:03;102032.70;;;1.26;76.48
74079;BME280;62437;51.544;-3.276;2023-02-01T05:04:28;102036.14;;;0.84;78.31
74079;BME280;62437;51.544;-3.276;2023-02-01T05:06:54;102031.30;;;1.08;76.86
74079;BME280;62437;51.544;-3.276;2023-02-01T05:09:20;102028.05;;;0.94;77.54
74079;BME280;62437;51.544;-3.276;2023-02-01T05:11:46;102031.03;;;0.79;78.39
74079;BME280;62437;51.544;-3.276;2023-02-01T05:14:12;102022.54;;;0.74;78.80
74079;BME280;62437;51.544;-3.276;2023-02-01T05:16:37;102013.21;;;0.82;78.17
74079;BME280;62437;51.544;-3.276;2023-02-01T05:19:03;102019.21;;;0.91;77.85
74079;BME280;62437;51.544;-3.276;2023-02-01T05:21:29;102008.79;;;0.42;80.40
74079;BME280;62437;51.544;-3.276;2023-02-01T05:23:55;101998.50;;;1.00;78.05
74079;BME280;62437;51.544;-3.276;2023-02-01T05:26:20;101993.67;;;0.59;78.40
74079;BME280;62437;51.544;-3.276;2023-02-01T05:28:48;101993.16;;;0.68;78.93
74079;BME280;62437;51.544;-3.276;2023-02-01T05:31:12;101998.01;;;1.33;75.91
74079;BME280;62437;51.544;-3.276;2023-02-01T05:33:38;101996.42;;;0.97;76.11
74079;BME280;62437;51.544;-3.276;2023-02-01T05:36:04;102002.78;;;1.03;76.10
74079;BME280;62437;51.544;-3.276;2023-02-01T05:38:29;101998.07;;;0.76;78.13
74079;BME280;62437;51.544;-3.276;2023-02-01T05:40:55;101993.94;;;0.56;79.08
74079;BME280;62437;51.544;-3.276;2023-02-01T05:43:21;101995.84;;;0.71;79.07
74079;BME280;62437;51.544;-3.276;2023-02-01T05:45:46;101993.34;;;0.14;80.07
74079;BME280;62437;51.544;-3.276;2023-02-01T05:48:12;101988.46;;;0.66;78.46
74079;BME280;62437;51.544;-3.276;2023-02-01T05:50:38;101984.45;;;0.80;78.12
74079;BME280;62437;51.544;-3.276;2023-02-01T05:53:04;101990.37;;;0.68;78.20
74079;BME280;62437;51.544;-3.276;2023-02-01T05:55:30;101985.14;;;0.87;76.30
74079;BME280;62437;51.544;-3.276;2023-02-01T05:57:55;101995.86;;;1.56;74.94
74079;BME280;62437;51.544;-3.276;2023-02-01T06:00:22;101986.68;;;0.86;77.50
74079;BME280;62437;51.544;-3.276;2023-02-01T06:02:47;101987.13;;;0.85;76.99
74079;BME280;62437;51.544;-3.276;2023-02-01T06:05:13;101999.67;;;1.14;73.64
74079;BME280;62437;51.544;-3.276;2023-02-01T06:07:39;102001.08;;;0.92;75.00
74079;BME280;62437;51.544;-3.276;2023-02-01T06:10:05;102000.10;;;1.24;73.64
74079;BME280;62437;51.544;-3.276;2023-02-01T06:12:30;101999.12;;;0.43;75.64
74079;BME280;62437;51.544;-3.276;2023-02-01T06:14:56;102003.27;;;0.52;76.97
74079;BME280;62437;51.544;-3.276;2023-02-01T06:17:22;102009.28;;;0.24;78.32
74079;BME280;62437;51.544;-3.276;2023-02-01T06:19:47;102015.32;;;0.31;79.59
74079;BME280;62437;51.544;-3.276;2023-02-01T06:22:13;102009.92;;;0.37;77.93
74079;BME280;62437;51.544;-3.276;2023-02-01T06:24:39;102003.79;;;0.09;79.33
74079;BME280;62437;51.544;-3.276;2023-02-01T06:27:05;102002.72;;;0.63;76.98
74079;BME280;62437;51.544;-3.276;2023-02-01T06:29:30;102001.76;;;0.41;79.70
74079;BME280;62437;51.544;-3.276;2023-02-01T06:31:56;102011.91;;;0.02;79.96
74079;BME280;62437;51.544;-3.276;2023-02-01T06:34:22;102015.08;;;0.38;79.61
74079;BME280;62437;51.544;-3.276;2023-02-01T06:36:48;102015.95;;;0.66;77.28
74079;BME280;62437;51.544;-3.276;2023-02-01T06:39:14;102019.08;;;1.07;74.12
74079;BME280;62437;51.544;-3.276;2023-02-01T06:41:39;102019.77;;;1.39;73.77
74079;BME280;62437;51.544;-3.276;2023-02-01T06:44:05;102025.31;;;1.39;73.01
74079;BME280;62437;51.544;-3.276;2023-02-01T06:46:31;102022.50;;;1.66;71.44
74079;BME280;62437;51.544;-3.276;2023-02-01T06:48:57;102030.13;;;1.81;71.48
74079;BME280;62437;51.544;-3.276;2023-02-01T06:51:24;102032.02;;;1.82;70.51
74079;BME280;62437;51.544;-3.276;2023-02-01T06:53:50;102032.40;;;1.69;71.60
74079;BME280;62437;51.544;-3.276;2023-02-01T06:56:14;102036.86;;;0.76;76.33
74079;BME280;62437;51.544;-3.276;2023-02-01T06:58:40;102028.30;;;0.63;77.53
74079;BME280;62437;51.544;-3.276;2023-02-01T07:01:06;102025.95;;;0.65;78.74
74079;BME280;62437;51.544;-3.276;2023-02-01T07:03:31;102035.21;;;0.61;78.24
74079;BME280;62437;51.544;-3.276;2023-02-01T07:05:57;102017.33;;;0.87;78.19
74079;BME280;62437;51.544;-3.276;2023-02-01T07:08:23;102017.88;;;0.89;77.81
74079;BME280;62437;51.544;-3.276;2023-02-01T07:10:49;102008.45;;;0.79;79.13
74079;BME280;62437;51.544;-3.276;2023-02-01T07:13:14;102003.13;;;1.05;80.69
74079;BME280;62437;51.544;-3.276;2023-02-01T07:15:40;102005.99;;;1.41;76.96
74079;BME280;62437;51.544;-3.276;2023-02-01T07:18:07;102002.08;;;0.70;80.02
74079;BME280;62437;51.544;-3.276;2023-02-01T07:20:31;102003.25;;;0.58;79.23
74079;BME280;62437;51.544;-3.276;2023-02-01T07:22:57;101995.87;;;0.65;81.10
74079;BME280;62437;51.544;-3.276;2023-02-01T07:25:24;101990.95;;;1.01;78.28
74079;BME280;62437;51.544;-3.276;2023-02-01T07:27:50;101978.72;;;0.62;80.08
74079;BME280;62437;51.544;-3.276;2023-02-01T07:30:15;101983.86;;;1.14;76.99
74079;BME280;62437;51.544;-3.276;2023-02-01T07:32:40;101980.20;;;1.61;75.73
74079;BME280;62437;51.544;-3.276;2023-02-01T07:35:07;101978.82;;;0.55;77.86
74079;BME280;62437;51.544;-3.276;2023-02-01T07:37:32;101982.18;;;0.89;76.86
74079;BME280;62437;51.544;-3.276;2023-02-01T07:39:58;101982.71;;;0.14;79.73
74079;BME280;62437;51.544;-3.276;2023-02-01T07:42:23;101983.00;;;0.98;79.05
74079;BME280;62437;51.544;-3.276;2023-02-01T07:44:49;101982.72;;;0.59;79.64
74079;BME280;62437;51.544;-3.276;2023-02-01T07:47:15;101988.76;;;0.87;78.39
74079;BME280;62437;51.544;-3.276;2023-02-01T07:49:41;101998.13;;;0.57;79.52
74079;BME280;62437;51.544;-3.276;2023-02-01T07:52:06;101995.38;;;0.64;78.85
74079;BME280;62437;51.544;-3.276;2023-02-01T07:54:36;102001.64;;;0.91;77.44
74079;BME280;62437;51.544;-3.276;2023-02-01T07:56:58;102006.80;;;1.03;77.03
74079;BME280;62437;51.544;-3.276;2023-02-01T07:59:24;102013.65;;;0.60;81.57
74079;BME280;62437;51.544;-3.276;2023-02-01T08:01:50;102009.11;;;0.66;79.09
74079;BME280;62437;51.544;-3.276;2023-02-01T08:04:15;102015.74;;;0.50;80.26
74079;BME280;62437;51.544;-3.276;2023-02-01T08:06:41;102015.35;;;0.44;80.91
74079;BME280;62437;51.544;-3.276;2023-02-01T08:09:07;102014.69;;;1.25;77.97
74079;BME280;62437;51.544;-3.276;2023-02-01T08:11:33;102012.46;;;1.56;77.48
74079;BME280;62437;51.544;-3.276;2023-02-01T08:13:58;102015.18;;;1.81;76.17
74079;BME280;62437;51.544;-3.276;2023-02-01T08:16:24;102019.17;;;1.04;78.38
74079;BME280;62437;51.544;-3.276;2023-02-01T08:18:50;102018.22;;;0.57;81.68
74079;BME280;62437;51.544;-3.276;2023-02-01T08:21:18;102024.30;;;1.18;78.72
74079;BME280;62437;51.544;-3.276;2023-02-01T08:23:42;102020.20;;;0.83;80.35
74079;BME280;62437;51.544;-3.276;2023-02-01T08:26:09;102025.29;;;0.96;81.59
74079;BME280;62437;51.544;-3.276;2023-02-01T08:28:33;102028.07;;;1.25;78.75
74079;BME280;62437;51.544;-3.276;2023-02-01T08:31:02;102022.78;;;1.07;80.79
74079;BME280;62437;51.544;-3.276;2023-02-01T08:33:25;102021.76;;;1.34;77.70
74079;BME280;62437;51.544;-3.276;2023-02-01T08:35:51;102025.40;;;1.46;78.32
74079;BME280;62437;51.544;-3.276;2023-02-01T08:38:16;102022.91;;;1.63;76.83
74079;BME280;62437;51.544;-3.276;2023-02-01T08:40:42;102025.10;;;1.92;75.62
74079;BME280;62437;51.544;-3.276;2023-02-01T08:43:08;102024.65;;;2.05;76.41
74079;BME280;62437;51.544;-3.276;2023-02-01T08:45:33;102032.35;;;1.16;78.99
74079;BME280;62437;51.544;-3.276;2023-02-01T08:47:59;102025.67;;;1.05;79.47
74079;BME280;62437;51.544;-3.276;2023-02-01T08:50:26;102024.35;;;1.27;78.78
74079;BME280;62437;51.544;-3.276;2023-02-01T08:52:52;102026.16;;;1.00;81.36
74079;BME280;62437;51.544;-3.276;2023-02-01T08:55:17;102028.19;;;0.87;81.55
74079;BME280;62437;51.544;-3.276;2023-02-01T08:57:42;102034.28;;;0.80;82.40
74079;BME280;62437;51.544;-3.276;2023-02-01T09:00:13;102039.42;;;1.10;82.16
74079;BME280;62437;51.544;-3.276;2023-02-01T09:02:34;102043.17;;;1.52;79.34
74079;BME280;62437;51.544;-3.276;2023-02-01T09:05:00;102045.46;;;1.14;80.87
74079;BME280;62437;51.544;-3.276;2023-02-01T09:07:25;102051.99;;;1.27;81.67
74079;BME280;62437;51.544;-3.276;2023-02-01T09:09:51;102048.99;;;1.39;79.50
74079;BME280;62437;51.544;-3.276;2023-02-01T09:12:17;102051.41;;;1.32;80.24
74079;BME280;62437;51.544;-3.276;2023-02-01T09:14:42;102052.87;;;1.25;79.67
74079;BME280;62437;51.544;-3.276;2023-02-01T09:17:08;102049.46;;;1.18;79.73
74079;BME280;62437;51.544;-3.276;2023-02-01T09:19:35;102052.49;;;1.34;80.50
74079;BME280;62437;51.544;-3.276;2023-02-01T09:22:00;102054.64;;;1.61;79.62
74079;BME280;62437;51.544;-3.276;2023-02-01T09:24:25;102056.06;;;1.71;78.48
74079;BME280;62437;51.544;-3.276;2023-02-01T09:26:53;102047.84;;;2.16;76.08
74079;BME280;62437;51.544;-3.276;2023-02-01T09:29:17;102063.34;;;1.21;79.86
74079;BME280;62437;51.544;-3.276;2023-02-01T09:31:43;102053.24;;;2.27;74.87
74079;BME280;62437;51.544;-3.276;2023-02-01T09:34:09;102052.20;;;2.22;76.83
74079;BME280;62437;51.544;-3.276;2023-02-01T09:36:35;102057.41;;;1.75;78.42
74079;BME280;62437;51.544;-3.276;2023-02-01T09:39:00;102049.08;;;1.08;81.04
74079;BME280;62437;51.544;-3.276;2023-02-01T09:41:38;102053.89;;;1.76;79.06
74079;BME280;62437;51.544;-3.276;2023-02-01T09:43:58;102058.55;;;1.82;79.75
74079;BME280;62437;51.544;-3.276;2023-02-01T09:46:23;102052.23;;;2.06;77.07
74079;BME280;62437;51.544;-3.276;2023-02-01T09:48:45;102051.52;;;2.08;77.01
74079;BME280;62437;51.544;-3.276;2023-02-01T09:51:14;102048.91;;;2.14;77.84
74079;BME280;62437;51.544;-3.276;2023-02-01T09:53:37;102044.45;;;1.85;79.05
74079;BME280;62437;51.544;-3.276;2023-02-01T09:56:05;102042.38;;;1.94;80.74
74079;BME280;62437;51.544;-3.276;2023-02-01T09:58:29;102038.51;;;2.33;76.72
74079;BME280;62437;51.544;-3.276;2023-02-01T10:00:53;102051.90;;;2.83;74.91
74079;BME280;62437;51.544;-3.276;2023-02-01T10:03:17;102041.14;;;2.26;76.94
74079;BME280;62437;51.544;-3.276;2023-02-01T10:08:15;102033.86;;;2.15;77.00
74079;BME280;62437;51.544;-3.276;2023-02-01T10:10:40;102039.89;;;2.08;77.04
74079;BME280;62437;51.544;-3.276;2023-02-01T10:13:09;102037.26;;;2.47;76.47
74079;BME280;62437;51.544;-3.276;2023-02-01T10:15:40;102036.73;;;2.01;78.62
74079;BME280;62437;51.544;-3.276;2023-02-01T10:18:05;102039.81;;;2.84;75.12
74079;BME280;62437;51.544;-3.276;2023-02-01T10:20:22;102045.05;;;2.82;74.57
74079;BME280;62437;51.544;-3.276;2023-02-01T10:22:45;102043.41;;;2.33;76.79
74079;BME280;62437;51.544;-3.276;2023-02-01T10:25:17;102039.11;;;3.00;74.56
74079;BME280;62437;51.544;-3.276;2023-02-01T10:27:37;102040.81;;;2.45;77.23
74079;BME280;62437;51.544;-3.276;2023-02-01T10:30:06;102046.92;;;2.80;75.52
74079;BME280;62437;51.544;-3.276;2023-02-01T10:32:30;102054.29;;;1.71;79.02
74079;BME280;62437;51.544;-3.276;2023-02-01T10:34:57;102051.42;;;2.54;77.04
74079;BME280;62437;51.544;-3.276;2023-02-01T10:37:26;102052.49;;;2.29;77.59
74079;BME280;62437;51.544;-3.276;2023-02-01T10:39:43;102049.88;;;2.04;79.48
74079;BME280;62437;51.544;-3.276;2023-02-01T10:42:09;102068.62;;;1.88;80.63
74079;BME280;62437;51.544;-3.276;2023-02-01T10:44:37;102062.28;;;1.81;81.89
74079;BME280;62437;51.544;-3.276;2023-02-01T10:47:02;102056.27;;;2.23;78.72
74079;BME280;62437;51.544;-3.276;2023-02-01T10:49:32;102058.00;;;2.00;78.57
74079;BME280;62437;51.544;-3.276;2023-02-01T10:51:55;102055.72;;;2.20;79.12
74079;BME280;62437;51.544;-3.276;2023-02-01T10:54:19;102057.97;;;2.90;76.56
74079;BME280;62437;51.544;-3.276;2023-02-01T10:56:44;102068.26;;;2.95;75.95
74079;BME280;62437;51.544;-3.276;2023-02-01T10:59:16;102070.77;;;3.14;74.37
74079;BME280;62437;51.544;-3.276;2023-02-01T11:01:39;102076.87;;;3.33;73.83
74079;BME280;62437;51.544;-3.276;2023-02-01T11:04:04;102078.43;;;3.20;72.74
74079;BME280;62437;51.544;-3.276;2023-02-01T11:06:29;102073.06;;;3.13;74.38
74079;BME280;62437;51.544;-3.276;2023-02-01T11:08:54;102084.53;;;2.75;76.27
74079;BME280;62437;51.544;-3.276;2023-02-01T11:11:18;102075.43;;;2.47;76.71
74079;BME280;62437;51.544;-3.276;2023-02-01T11:13:44;102076.59;;;3.01;77.36
74079;BME280;62437;51.544;-3.276;2023-02-01T11:16:13;102075.96;;;2.86;77.17
74079;BME280;62437;51.544;-3.276;2023-02-01T11:18:37;102065.04;;;2.53;78.41
74079;BME280;62437;51.544;-3.276;2023-02-01T11:21:01;102063.19;;;2.69;76.18
74079;BME280;62437;51.544;-3.276;2023-02-01T11:23:28;102060.68;;;3.71;74.48
74079;BME280;62437;51.544;-3.276;2023-02-01T11:25:54;102061.17;;;3.47;74.07
74079;BME280;62437;51.544;-3.276;2023-02-01T11:28:19;102063.72;;;3.14;74.03
74079;BME280;62437;51.544;-3.276;2023-02-01T11:30:47;102058.94;;;2.65;77.79
74079;BME280;62437;51.544;-3.276;2023-02-01T11:33:15;102050.10;;;3.10;76.03
74079;BME280;62437;51.544;-3.276;2023-02-01T11:35:38;102052.71;;;3.09;75.91
74079;BME280;62437;51.544;-3.276;2023-02-01T11:38:09;102046.76;;;3.07;75.74
74079;BME280;62437;51.544;-3.276;2023-02-01T11:40:28;102040.73;;;2.63;77.12
74079;BME280;62437;51.544;-3.276;2023-02-01T11:42:54;102042.89;;;2.85;77.59
74079;BME280;62437;51.544;-3.276;2023-02-01T11:45:20;102042.40;;;3.47;73.58
74079;BME280;62437;51.544;-3.276;2023-02-01T11:47:44;102037.06;;;2.87;76.69
74079;BME280;62437;51.544;-3.276;2023-02-01T11:50:15;102043.30;;;2.92;76.43
74079;BME280;62437;51.544;-3.276;2023-02-01T11:52:48;102038.18;;;2.76;77.29
74079;BME280;62437;51.544;-3.276;2023-02-01T11:55:17;102035.48;;;3.19;77.26
74079;BME280;62437;51.544;-3.276;2023-02-01T11:57:39;102040.34;;;3.16;75.42
74079;BME280;62437;51.544;-3.276;2023-02-01T12:00:04;102038.90;;;3.16;75.76
74079;BME280;62437;51.544;-3.276;2023-02-01T12:02:38;102036.94;;;3.72;72.88
74079;BME280;62437;51.544;-3.276;2023-02-01T12:05:01;102034.81;;;3.40;74.65
74079;BME280;62437;51.544;-3.276;2023-02-01T12:07:16;102037.28;;;3.23;75.69
74079;BME280;62437;51.544;-3.276;2023-02-01T12:09:49;102036.09;;;3.20;76.68
74079;BME280;62437;51.544;-3.276;2023-02-01T12:12:08;102031.94;;;2.77;76.95
74079;BME280;62437;51.544;-3.276;2023-02-01T12:14:43;102039.43;;;3.27;76.03
74079;BME280;62437;51.544;-3.276;2023-02-01T12:19:31;102028.09;;;3.37;74.58
74079;BME280;62437;51.544;-3.276;2023-02-01T12:21:54;102039.32;;;3.07;77.67
74079;BME280;62437;51.544;-3.276;2023-02-01T12:24:31;102047.08;;;2.83;75.81
74079;BME280;62437;51.544;-3.276;2023-02-01T12:26:45;102047.27;;;3.79;74.64
74079;BME280;62437;51.544;-3.276;2023-02-01T12:29:16;102038.28;;;3.49;75.15
74079;BME280;62437;51.544;-3.276;2023-02-01T12:31:38;102032.43;;;3.97;72.94
74079;BME280;62437;51.544;-3.276;2023-02-01T12:34:07;102037.43;;;3.77;73.93
74079;BME280;62437;51.544;-3.276;2023-02-01T12:36:24;102040.51;;;3.78;73.86
74079;BME280;62437;51.544;-3.276;2023-02-01T12:38:51;102035.39;;;2.98;76.25
74079;BME280;62437;51.544;-3.276;2023-02-01T12:41:25;102032.50;;;3.73;73.81
74079;BME280;62437;51.544;-3.276;2023-02-01T12:43:41;102029.15;;;3.33;74.56
74079;BME280;62437;51.544;-3.276;2023-02-01T12:46:07;102017.65;;;3.82;73.34
74079;BME280;62437;51.544;-3.276;2023-02-01T12:48:31;102021.00;;;3.79;74.44
74079;BME280;62437;51.544;-3.276;2023-02-01T12:50:55;102023.25;;;3.49;74.95
74079;BME280;62437;51.544;-3.276;2023-02-01T12:53:24;102021.21;;;3.63;73.00
74079;BME280;62437;51.544;-3.276;2023-02-01T12:55:49;102016.22;;;3.85;74.55